Time;durP1;ratioP1;P1;durP2;ratioP2;P2;SDS_P1;SDS_P2;PMS_P1;PMS_P2;Temp;Humidity;BMP_temperature;BMP_pressure;BME280_temperature;BME280_humidity;BME280_pressure;Samples;Min_cycle;Max_cycle;Signal;HPM_P1;HPM_P2
2022/04/05 00:01:05;;;;;;;;;2.00;2.00;;;;;15.77;56.87;100580.22;4934673;29;9514;-67
2022/04/05 00:03:30;;;;;;;;;1.75;1.50;;;;;15.76;56.87;100583.72;4935112;29;9452;-68
2022/04/05 00:05:55;;;;;;;;;1.50;1.50;;;;;15.76;57.18;100580.22;4934048;29;8818;-67
2022/04/05 00:08:21;;;;;;;;;1.67;1.67;;;;;15.77;57.22;100581.97;4934729;29;8837;-67
2022/04/05 00:10:46;;;;;;;;;1.00;1.00;;;;;15.76;56.96;100577.56;4934513;29;8968;-67
2022/04/05 00:13:11;;;;;;;;;0.50;0.50;;;;;15.76;56.92;100588.09;4931530;29;8836;-67
2022/04/05 00:15:37;;;;;;;;;1.00;1.00;;;;;15.77;56.88;100588.13;4934501;29;8820;-67
2022/04/05 00:18:02;;;;;;;;;2.00;1.50;;;;;15.75;57.06;100591.59;4934468;29;8801;-67
2022/04/05 00:20:28;;;;;;;;;1.25;1.25;;;;;15.74;57.18;100598.66;4933943;29;9440;-67
2022/04/05 00:22:54;;;;;;;;;2.50;1.50;;;;;15.77;57.19;100587.22;4934334;29;8841;-66
2022/04/05 00:25:19;;;;;;;;;0.25;0.25;;;;;15.74;56.99;100585.50;4934674;29;8797;-68
2022/04/05 00:27:46;;;;;;;;;2.25;2.00;;;;;15.78;57.24;100587.22;4933969;29;9464;-68
2022/04/05 00:30:15;;;;;;;;;1.75;1.25;;;;;15.74;57.17;100584.63;4934238;29;8794;-67
2022/04/05 00:32:43;;;;;;;;;1.00;1.00;;;;;15.76;57.03;100596.00;4933817;29;9541;-67
2022/04/05 00:35:09;;;;;;;;;2.33;0.33;;;;;15.74;57.18;100600.41;4934132;29;9670;-68
2022/04/05 00:37:35;;;;;;;;;1.00;1.00;;;;;15.77;56.96;100593.38;4934209;29;9350;-68
2022/04/05 00:40:01;;;;;;;;;0.33;0.33;;;;;15.77;56.96;100589.88;4933376;29;9436;-68
2022/04/05 00:42:29;;;;;;;;;0.75;0.75;;;;;15.76;57.10;100598.63;4933926;29;8837;-69
2022/04/05 00:44:54;;;;;;;;;3.00;2.00;;;;;15.75;57.08;100592.50;4933811;29;9670;-68
2022/04/05 00:47:22;;;;;;;;;2.50;2.00;;;;;15.74;57.01;100592.50;4933430;29;8932;-68
2022/04/05 00:49:49;;;;;;;;;2.67;1.67;;;;;15.74;56.96;100598.66;4934040;29;8802;-69
2022/04/05 00:52:18;;;;;;;;;1.00;1.00;;;;;15.72;57.26;100600.41;4933952;29;9288;-68
2022/04/05 00:54:45;;;;;;;;;2.00;1.00;;;;;15.73;56.93;100594.28;4933610;29;9417;-68
2022/04/05 00:57:13;;;;;;;;;0.00;0.00;;;;;15.76;57.10;100596.88;4933009;29;9459;-68
2022/04/05 00:59:43;;;;;;;;;0.75;0.75;;;;;15.77;57.16;100589.88;4933771;29;9415;-67
2022/04/05 01:02:12;;;;;;;;;1.25;1.25;;;;;15.77;57.01;100600.41;4932621;29;9531;-68
2022/04/05 01:04:40;;;;;;;;;1.00;1.00;;;;;15.74;57.01;100605.69;4933771;29;9929;-67
2022/04/05 01:07:09;;;;;;;;;0.00;0.00;;;;;15.79;56.82;100603.88;4933591;29;9303;-68
2022/04/05 01:09:36;;;;;;;;;0.25;0.25;;;;;15.76;57.18;100599.50;4933013;29;9207;-68
2022/04/05 01:12:01;;;;;;;;;1.00;0.00;;;;;15.74;57.11;100609.19;4932305;29;9430;-68
2022/04/05 01:14:27;;;;;;;;;0.00;0.00;;;;;15.77;57.05;100603.91;4932827;29;9478;-67
2022/04/05 01:16:52;;;;;;;;;1.00;0.00;;;;;15.76;56.90;100606.53;4938878;29;8782;-67
2022/04/05 01:19:17;;;;;;;;;0.00;0.00;;;;;15.77;56.82;100609.16;4933642;29;8834;-68
2022/04/05 01:21:43;;;;;;;;;2.00;1.00;;;;;15.75;57.08;100616.19;4935310;29;8794;-68
2022/04/05 01:24:13;;;;;;;;;0.67;0.67;;;;;15.73;57.01;100610.06;4933645;29;8823;-67
2022/04/05 01:26:42;;;;;;;;;0.67;0.00;;;;;15.75;56.88;100613.53;4933330;29;12228;-69
2022/04/05 01:29:08;;;;;;;;;0.67;0.67;;;;;15.73;56.92;100607.44;4932565;29;9308;-69
2022/04/05 01:31:38;;;;;;;;;0.00;0.00;;;;;15.73;56.92;100611.81;4933374;29;9366;-68
2022/04/05 01:34:04;;;;;;;;;0.25;0.00;;;;;15.72;56.86;100613.56;4933362;29;8943;-68
2022/04/05 01:36:29;;;;;;;;;0.00;0.00;;;;;15.70;56.99;100609.19;4936321;29;9463;-68
2022/04/05 01:38:54;;;;;;;;;0.00;0.00;;;;;15.74;56.60;100605.69;4933219;29;9011;-68
2022/04/05 01:41:20;;;;;;;;;0.67;0.00;;;;;15.73;56.92;100604.78;4933360;29;8912;-68
2022/04/05 01:43:45;;;;;;;;;0.00;0.00;;;;;15.73;56.93;100601.28;4932642;29;8813;-68
2022/04/05 01:46:11;;;;;;;;;0.00;0.00;;;;;15.72;56.94;100605.66;4932778;29;8849;-68
2022/04/05 01:48:36;;;;;;;;;0.00;0.00;;;;;15.72;56.78;100595.13;4933398;29;8828;-68
2022/04/05 01:51:02;;;;;;;;;1.00;1.00;;;;;15.74;56.95;100601.28;4932359;29;8793;-68
2022/04/05 01:53:27;;;;;;;;;0.00;0.00;;;;;15.72;56.71;100597.78;4933240;29;9735;-68
2022/04/05 01:55:52;;;;;;;;;0.00;0.00;;;;;15.72;56.83;100595.13;4933067;29;8777;-68
2022/04/05 01:58:17;;;;;;;;;2.00;0.67;;;;;15.73;56.76;100589.00;4932266;29;8849;-68
2022/04/05 02:00:43;;;;;;;;;0.00;0.00;;;;;15.73;56.80;100591.63;4933027;29;9545;-68
2022/04/05 02:03:11;;;;;;;;;0.00;0.00;;;;;15.70;56.80;100594.28;4933950;29;8786;-68
2022/04/05 02:05:38;;;;;;;;;0.33;0.33;;;;;15.74;56.61;100589.88;4932884;29;8806;-68
2022/04/05 02:08:04;;;;;;;;;0.00;0.00;;;;;15.75;56.81;100587.22;4933695;29;9225;-68
2022/04/05 02:10:30;;;;;;;;;0.00;0.00;;;;;15.73;56.73;100591.63;4933479;29;10061;-68
2022/04/05 02:12:55;;;;;;;;;0.00;0.00;;;;;15.74;56.76;100595.16;4929906;29;8797;-68
2022/04/05 02:15:21;;;;;;;;;0.00;0.00;;;;;15.71;56.59;100592.53;4932932;29;9311;-68
2022/04/05 02:17:46;;;;;;;;;0.00;0.00;;;;;15.69;56.66;100592.53;4933045;29;8806;-69
2022/04/05 02:20:13;;;;;;;;;0.00;0.00;;;;;15.68;56.98;100590.75;4932388;29;8891;-68
2022/04/05 02:22:38;;;;;;;;;0.33;0.00;;;;;15.69;56.66;100592.53;4933272;29;8798;-68
2022/04/05 02:25:04;;;;;;;;;0.00;0.00;;;;;15.71;56.65;100587.28;4932924;29;9362;-68
2022/04/05 02:27:29;;;;;;;;;0.00;0.00;;;;;15.71;56.76;100588.13;4932303;29;8802;-68
2022/04/05 02:29:54;;;;;;;;;0.00;0.00;;;;;15.72;56.51;100591.63;4932512;29;8813;-68
2022/04/05 02:32:20;;;;;;;;;0.00;0.00;;;;;15.70;56.65;100594.28;4932274;29;8814;-68
2022/04/05 02:34:45;;;;;;;;;1.00;0.00;;;;;15.68;56.42;100582.88;4932742;29;8802;-67
2022/04/05 02:37:10;;;;;;;;;0.00;0.00;;;;;15.69;56.47;100584.63;4932993;29;8797;-68
2022/04/05 02:39:35;;;;;;;;;1.00;0.00;;;;;15.68;56.67;100580.22;4932116;29;8841;-68
2022/04/05 02:42:01;;;;;;;;;0.00;0.00;;;;;15.70;56.49;100582.88;4932658;29;8801;-68
2022/04/05 02:44:26;;;;;;;;;0.00;0.00;;;;;15.69;56.54;100584.63;4932844;29;8802;-68
2022/04/05 02:46:51;;;;;;;;;0.00;0.00;;;;;15.71;56.59;100587.28;4931792;29;8864;-68
2022/04/05 02:49:17;;;;;;;;;1.00;0.75;;;;;15.69;56.35;100587.25;4932791;29;8817;-69
2022/04/05 02:51:42;;;;;;;;;1.00;1.00;;;;;15.70;56.71;100581.13;4933153;29;8805;-68
2022/04/05 02:54:07;;;;;;;;;0.00;0.00;;;;;15.68;56.67;100580.22;4931777;29;9574;-68
2022/04/05 02:56:33;;;;;;;;;1.00;1.00;;;;;15.68;56.57;100574.97;4932919;29;8798;-68
2022/04/05 02:58:58;;;;;;;;;0.00;0.00;;;;;15.69;56.60;100575.84;4932118;29;9565;-68
2022/04/05 03:01:23;;;;;;;;;0.00;0.00;;;;;15.67;56.61;100570.59;4932131;29;8802;-68
2022/04/05 03:03:52;;;;;;;;;0.00;0.00;;;;;15.68;56.44;100569.72;4932214;29;8892;-68
2022/04/05 03:06:17;;;;;;;;;0.00;0.00;;;;;15.68;56.89;100571.47;4932757;29;8806;-68
2022/04/05 03:08:43;;;;;;;;;0.00;0.00;;;;;15.66;56.54;100575.88;4931996;29;9327;-68
2022/04/05 03:11:09;;;;;;;;;0.00;0.00;;;;;15.70;56.65;100574.97;4932623;29;8798;-68
2022/04/05 03:13:35;;;;;;;;;1.00;0.00;;;;;15.66;56.47;100574.13;4930221;29;9327;-67
2022/04/05 03:16:00;;;;;;;;;0.00;0.00;;;;;15.69;56.59;100573.22;4931553;29;8935;-68
2022/04/05 03:18:26;;;;;;;;;0.67;0.67;;;;;15.67;56.42;100569.75;4932457;29;9299;-68
2022/04/05 03:20:52;;;;;;;;;0.00;0.00;;;;;15.65;56.46;100574.13;4933154;29;8810;-67
2022/04/05 03:23:19;;;;;;;;;0.00;0.00;;;;;15.66;56.65;100568.84;4935199;29;8864;-68
2022/04/05 03:25:44;;;;;;;;;0.00;0.00;;;;;15.66;56.55;100566.22;4935638;29;8802;-68
2022/04/05 03:28:10;;;;;;;;;0.67;0.00;;;;;15.65;56.46;100566.22;4935520;29;9301;-67
2022/04/05 03:30:35;;;;;;;;;0.00;0.00;;;;;15.67;56.84;100565.31;4935012;29;8810;-67
2022/04/05 03:33:00;;;;;;;;;0.00;0.00;;;;;15.65;56.41;100574.13;4935170;29;8826;-68
2022/04/05 03:35:26;;;;;;;;;0.00;0.00;;;;;15.60;56.73;100563.59;4935112;29;9251;-68
2022/04/05 03:37:55;;;;;;;;;0.33;0.00;;;;;15.69;56.65;100573.22;4935308;29;8797;-68
2022/04/05 03:40:20;;;;;;;;;0.67;0.00;;;;;15.67;56.50;100559.22;4935322;29;9319;-68
2022/04/05 03:42:45;;;;;;;;;0.00;0.00;;;;;15.67;56.42;100562.69;4934356;29;9373;-68
2022/04/05 03:45:13;;;;;;;;;0.00;0.00;;;;;15.66;56.90;100557.44;4935605;29;8809;-68
2022/04/05 03:47:38;;;;;;;;;2.67;1.00;;;;;15.63;56.57;100560.09;4934828;29;8872;-67
2022/04/05 03:50:04;;;;;;;;;0.00;0.00;;;;;15.65;56.67;100556.56;4934355;29;9124;-68
2022/04/05 03:52:30;;;;;;;;;0.00;0.00;;;;;15.68;56.70;100563.56;4935224;29;9574;-68
2022/04/05 03:54:55;;;;;;;;;1.00;1.00;;;;;15.62;56.54;100556.59;4935048;29;8800;-67
2022/04/05 03:57:20;;;;;;;;;0.25;0.25;;;;;15.68;56.65;100559.19;4934278;29;8813;-67
2022/04/05 03:59:45;;;;;;;;;0.00;0.00;;;;;15.64;56.79;100564.47;4934540;29;8870;-67
2022/04/05 04:02:11;;;;;;;;;0.00;0.00;;;;;15.65;56.56;100560.94;4935349;29;8794;-67
2022/04/05 04:04:36;;;;;;;;;0.33;0.33;;;;;15.63;56.80;100558.34;4934588;29;8932;-67
2022/04/05 04:07:02;;;;;;;;;0.00;0.00;;;;;15.62;56.79;100556.59;4934936;29;8789;-67
2022/04/05 04:09:27;;;;;;;;;1.25;1.25;;;;;15.66;56.76;100558.31;4934919;29;8892;-67
2022/04/05 04:11:52;;;;;;;;;0.00;0.00;;;;;15.67;56.54;100553.94;4933976;29;8802;-67
2022/04/05 04:14:18;;;;;;;;;0.33;0.00;;;;;15.63;56.78;100552.19;4932836;29;8817;-67
2022/04/05 04:16:47;;;;;;;;;0.00;0.00;;;;;15.63;57.08;100558.34;4934507;29;8884;-67
2022/04/05 04:19:13;;;;;;;;;1.00;0.00;;;;;15.63;57.13;100552.19;4938915;29;9993;-68
2022/04/05 04:21:38;;;;;;;;;0.00;0.00;;;;;15.61;56.64;100548.69;4935446;29;9302;-67
2022/04/05 04:24:03;;;;;;;;;1.25;0.00;;;;;15.61;56.71;100553.94;4934674;29;8817;-68
2022/04/05 04:26:29;;;;;;;;;1.00;1.00;;;;;15.61;56.68;100546.06;4934158;29;8902;-68
2022/04/05 04:28:57;;;;;;;;;0.00;0.00;;;;;15.60;56.71;100545.16;4934241;29;8814;-67
2022/04/05 04:31:41;;;;;;;;;0.50;0.50;;;;;15.61;56.91;100552.19;4934755;29;8805;-68
2022/04/05 04:34:06;;;;;;;;;1.00;1.00;;;;;15.63;57.15;100550.44;4938780;29;9466;-67
2022/04/05 04:36:32;;;;;;;;;0.00;0.00;;;;;15.63;57.01;100555.72;4935189;29;9214;-67
2022/04/05 04:38:57;;;;;;;;;0.67;0.67;;;;;15.64;57.12;100549.53;4933980;29;8833;-68
2022/04/05 04:41:26;;;;;;;;;1.33;1.33;;;;;15.65;57.05;100548.66;4934596;29;8924;-67
2022/04/05 04:43:51;;;;;;;;;1.67;0.00;;;;;15.63;56.93;100554.84;4934580;29;8944;-67
2022/04/05 04:46:17;;;;;;;;;1.00;0.00;;;;;15.61;56.73;100551.31;4933899;29;9365;-67
2022/04/05 04:48:43;;;;;;;;;0.00;0.00;;;;;15.62;56.98;100564.47;4934976;29;8794;-68
2022/04/05 04:51:09;;;;;;;;;1.00;1.00;;;;;15.64;57.04;100554.81;4934397;29;8808;-68
2022/04/05 04:53:34;;;;;;;;;0.00;0.00;;;;;15.61;57.07;100554.81;4933476;29;9468;-67
2022/04/05 04:55:59;;;;;;;;;1.33;0.67;;;;;15.63;57.17;100557.47;4933724;29;8858;-67
2022/04/05 04:58:24;;;;;;;;;0.00;0.00;;;;;15.61;56.96;100551.31;4934215;29;8809;-67
2022/04/05 05:00:50;;;;;;;;;0.33;0.00;;;;;15.69;57.24;100566.22;4932928;29;8798;-67
2022/04/05 05:03:18;;;;;;;;;1.00;1.00;;;;;15.67;57.11;100557.41;4934047;29;8818;-67
2022/04/05 05:05:44;;;;;;;;;0.00;0.00;;;;;15.67;56.99;100561.84;4933784;29;8798;-67
2022/04/05 05:08:09;;;;;;;;;0.75;0.75;;;;;15.71;56.95;100563.59;4932989;29;9389;-68
2022/04/05 05:10:34;;;;;;;;;1.75;0.00;;;;;15.72;56.83;100560.03;4933652;29;9558;-68
2022/04/05 05:13:00;;;;;;;;;0.00;0.00;;;;;15.73;56.89;100552.16;4931854;29;8798;-67
2022/04/05 05:15:25;;;;;;;;;1.00;1.00;;;;;15.77;57.12;100560.91;4933344;29;8816;-68
2022/04/05 05:17:50;;;;;;;;;2.00;1.00;;;;;15.77;56.87;100556.53;4932794;29;8840;-67
2022/04/05 05:20:19;;;;;;;;;1.00;1.00;;;;;15.78;56.72;100563.50;4933797;29;9550;-67
2022/04/05 05:22:44;;;;;;;;;1.67;1.00;;;;;15.77;56.76;100567.06;4933094;29;8896;-68
2022/04/05 05:25:10;;;;;;;;;2.00;0.00;;;;;15.78;56.94;100557.41;4933815;29;9337;-67
2022/04/05 05:27:37;;;;;;;;;1.67;1.67;;;;;15.79;56.82;100562.66;4933954;29;8810;-67
2022/04/05 05:30:05;;;;;;;;;1.67;1.67;;;;;15.78;56.91;100562.66;4932964;29;9375;-67
2022/04/05 05:32:30;;;;;;;;;0.00;0.00;;;;;15.80;56.99;100566.16;4933955;29;9285;-67
2022/04/05 05:34:56;;;;;;;;;0.00;0.00;;;;;15.78;57.11;100567.94;4933057;29;9242;-67
2022/04/05 05:37:21;;;;;;;;;2.00;1.67;;;;;15.78;57.33;100573.19;4932877;29;8786;-68
2022/04/05 05:39:46;;;;;;;;;2.33;1.67;;;;;15.79;56.83;100565.28;4932874;29;8817;-68
2022/04/05 05:42:14;;;;;;;;;2.00;2.00;;;;;15.79;57.08;100569.66;4932739;29;8932;-68
2022/04/05 05:44:40;;;;;;;;;1.00;1.00;;;;;15.78;56.98;100565.31;4932563;29;8814;-67
2022/04/05 05:47:05;;;;;;;;;1.00;1.00;;;;;15.82;57.32;100565.25;4932722;29;9196;-68
2022/04/05 05:49:31;;;;;;;;;0.00;0.00;;;;;15.80;57.00;100580.19;4932438;29;8998;-68
2022/04/05 05:51:56;;;;;;;;;1.00;1.00;;;;;15.81;57.29;100575.81;4932552;29;8818;-68
2022/04/05 05:54:22;;;;;;;;;1.00;1.00;;;;;15.81;57.00;100578.44;4932994;29;8801;-69
2022/04/05 05:56:47;;;;;;;;;1.00;1.00;;;;;15.81;56.94;100584.59;4932181;29;8960;-69
2022/04/05 05:59:12;;;;;;;;;1.00;1.00;;;;;15.80;56.80;100582.84;4932966;29;8817;-69
2022/04/05 06:01:37;;;;;;;;;0.25;0.25;;;;;15.80;57.05;100585.47;4933223;29;8802;-69
2022/04/05 06:04:03;;;;;;;;;1.67;1.33;;;;;15.88;58.75;100588.06;4931955;29;8832;-70
2022/04/05 06:06:31;;;;;;;;;0.67;0.67;;;;;15.93;61.65;100581.03;4932662;29;8829;-72
2022/04/05 06:08:58;;;;;;;;;0.00;0.00;;;;;16.02;60.68;100586.25;4932590;29;8956;-72
2022/04/05 06:11:23;;;;;;;;;1.00;1.00;;;;;16.11;61.94;100573.03;4932091;29;9268;-70
2022/04/05 06:13:50;;;;;;;;;0.00;0.00;;;;;16.24;64.60;100584.38;4930460;29;9396;-68
2022/04/05 06:16:15;;;;;;;;;2.33;2.00;;;;;16.30;67.22;100584.34;4933374;29;9011;-70
2022/04/05 06:18:47;;;;;;;;;2.00;1.00;;;;;16.36;67.06;100579.03;4931689;29;9922;-67
2022/04/05 06:21:16;;;;;;;;;3.50;2.00;;;;;16.44;69.14;100590.41;4932474;29;8817;-67
2022/04/05 06:23:42;;;;;;;;;2.25;2.25;;;;;16.49;68.82;100588.63;4932621;29;9460;-67
2022/04/05 06:26:07;;;;;;;;;3.50;3.50;;;;;16.51;70.85;100593.88;4931824;29;9545;-66
2022/04/05 06:28:33;;;;;;;;;0.67;0.33;;;;;16.49;70.81;100598.28;4932609;29;8880;-67
2022/04/05 06:30:58;;;;;;;;;3.00;2.67;;;;;16.43;69.78;100593.91;4932564;29;8797;-68
2022/04/05 06:33:24;;;;;;;;;4.75;2.75;;;;;16.49;70.16;100596.53;4931921;29;8813;-69
2022/04/05 06:35:52;;;;;;;;;4.00;2.00;;;;;16.48;71.17;100597.41;4930385;29;8798;-68
2022/04/05 06:38:19;;;;;;;;;5.00;4.75;;;;;16.40;70.98;100597.44;4908975;29;8816;-69
2022/04/05 06:40:44;;;;;;;;;4.75;4.00;;;;;16.29;71.00;100596.63;4909510;29;9636;-68
2022/04/05 06:43:11;;;;;;;;;7.00;4.00;;;;;16.26;70.46;100601.94;4912403;29;9538;-68
2022/04/05 06:45:36;;;;;;;;;4.00;3.00;;;;;16.25;70.33;100610.72;4909063;29;8827;-68
2022/04/05 06:48:06;;;;;;;;;4.25;3.00;;;;;16.23;69.74;100601.06;4912287;29;9625;-69
2022/04/05 06:50:35;;;;;;;;;3.00;3.00;;;;;16.22;69.43;100605.47;4912724;29;8828;-68
2022/04/05 06:53:02;;;;;;;;;4.50;4.00;;;;;16.23;69.50;100609.81;4911921;29;9456;-69
2022/04/05 06:55:28;;;;;;;;;6.25;4.00;;;;;16.24;68.74;100616.84;4912306;29;9534;-69
2022/04/05 06:57:54;;;;;;;;;3.75;2.75;;;;;16.26;68.37;100617.75;4915807;29;9861;-69
2022/04/05 07:00:22;;;;;;;;;2.25;2.25;;;;;16.24;68.49;100618.59;4915868;29;8836;-71
2022/04/05 07:02:47;;;;;;;;;1.75;1.75;;;;;16.22;68.09;100625.66;4914190;29;9637;-70
2022/04/05 07:05:13;;;;;;;;;4.25;3.25;;;;;16.20;68.22;100630.91;4913614;29;9474;-70
2022/04/05 07:07:39;;;;;;;;;1.00;1.00;;;;;16.19;68.11;100616.03;4915726;29;8852;-69
2022/04/05 07:10:09;;;;;;;;;2.25;2.25;;;;;16.18;67.70;100630.06;4915429;29;8817;-69
2022/04/05 07:12:34;;;;;;;;;2.00;1.50;;;;;16.15;67.07;100632.72;4921436;29;9598;-69
2022/04/05 07:15:00;;;;;;;;;5.00;2.25;;;;;16.16;67.11;100628.34;4918021;29;9467;-69
2022/04/05 07:17:26;;;;;;;;;2.33;1.00;;;;;16.15;67.16;100622.19;4916191;29;8816;-70
2022/04/05 07:19:54;;;;;;;;;4.00;2.00;;;;;16.13;66.69;100634.47;4920915;29;9534;-69
2022/04/05 07:22:19;;;;;;;;;3.00;3.00;;;;;16.15;66.60;100632.72;4916322;29;8931;-69
2022/04/05 07:24:46;;;;;;;;;4.00;2.00;;;;;16.14;66.31;100627.44;4914448;29;9666;-69
2022/04/05 07:27:15;;;;;;;;;3.00;2.00;;;;;16.14;66.24;100632.72;4918440;29;8866;-69
2022/04/05 07:29:40;;;;;;;;;2.33;1.33;;;;;16.15;66.30;100621.31;4917192;29;9479;-69
2022/04/05 07:32:06;;;;;;;;;2.00;2.00;;;;;16.19;64.93;100638.84;4917401;29;10557;-70
2022/04/05 07:34:32;;;;;;;;;2.50;1.25;;;;;16.22;65.22;100639.72;4917521;29;8839;-69
2022/04/05 07:36:57;;;;;;;;;5.00;2.50;;;;;16.21;64.62;100632.69;4915771;29;8840;-70
2022/04/05 07:39:23;;;;;;;;;3.50;2.50;;;;;16.23;64.38;100651.97;4915415;29;9430;-69
2022/04/05 07:41:49;;;;;;;;;1.00;1.00;;;;;16.24;64.30;100631.78;4914773;29;8847;-69
2022/04/05 07:44:14;;;;;;;;;7.50;2.75;;;;;16.25;64.21;100625.63;4914642;29;8844;-69
2022/04/05 07:46:40;;;;;;;;;1.00;1.00;;;;;16.22;64.88;100626.53;4914960;29;8895;-69
2022/04/05 07:49:05;;;;;;;;;3.00;1.33;;;;;16.19;64.15;100623.94;4914036;29;8827;-69
2022/04/05 07:51:31;;;;;;;;;2.00;2.00;;;;;16.23;63.66;100622.16;4915649;29;8828;-69
2022/04/05 07:53:56;;;;;;;;;2.75;2.75;;;;;16.34;63.14;100622.97;4913912;29;9249;-70
2022/04/05 07:56:22;;;;;;;;;2.00;1.75;;;;;16.28;63.18;100623.84;4914808;29;8816;-70
2022/04/05 07:58:47;;;;;;;;;1.00;1.00;;;;;16.37;62.68;100621.19;4915096;29;8844;-69
2022/04/05 08:01:12;;;;;;;;;3.67;2.33;;;;;16.32;62.91;100622.09;4914454;29;8932;-70
2022/04/05 08:03:38;;;;;;;;;2.00;2.00;;;;;16.31;62.52;100629.09;4913624;29;8828;-69
2022/04/05 08:06:05;;;;;;;;;0.67;0.67;;;;;16.34;62.31;100623.84;4915120;29;8824;-69
2022/04/05 08:08:31;;;;;;;;;1.67;1.67;;;;;16.31;62.20;100626.47;4914848;29;8867;-69
2022/04/05 08:10:57;;;;;;;;;3.67;2.00;;;;;16.28;62.58;100630.88;4914024;29;9311;-69
2022/04/05 08:13:23;;;;;;;;;2.00;2.00;;;;;16.29;62.23;100624.75;4915612;29;9226;-69
2022/04/05 08:15:49;;;;;;;;;2.33;2.33;;;;;16.38;61.79;100627.34;4915021;29;9326;-70
2022/04/05 08:18:14;;;;;;;;;2.00;1.33;;;;;16.33;61.64;100637.91;4914333;29;8911;-70
2022/04/05 08:20:41;;;;;;;;;1.00;1.00;;;;;16.36;61.88;100629.97;4914682;29;11585;-70
2022/04/05 08:23:09;;;;;;;;;3.67;3.00;;;;;16.36;61.79;100632.59;4914316;29;8848;-71
2022/04/05 08:25:35;;;;;;;;;2.00;1.00;;;;;16.36;61.86;100632.59;4914230;29;9252;-70
2022/04/05 08:28:01;;;;;;;;;3.50;2.25;;;;;16.35;61.76;100640.50;4914209;29;9408;-70
2022/04/05 08:30:26;;;;;;;;;2.50;1.75;;;;;16.35;61.38;100633.47;4931770;29;8842;-70
2022/04/05 08:32:52;;;;;;;;;2.00;2.00;;;;;16.27;61.55;100637.91;4933491;29;8832;-70
2022/04/05 08:35:20;;;;;;;;;1.33;1.33;;;;;16.37;61.60;100638.75;4920653;29;8817;-71
2022/04/05 08:37:47;;;;;;;;;2.67;1.00;;;;;16.37;61.28;100642.25;4914810;29;8955;-71
2022/04/05 08:40:14;;;;;;;;;2.00;2.00;;;;;16.37;61.42;100642.25;4914737;29;9332;-70
2022/04/05 08:42:43;;;;;;;;;2.50;1.00;;;;;16.33;61.37;100635.25;4915246;29;9380;-70
2022/04/05 08:45:11;;;;;;;;;1.00;1.00;;;;;16.49;60.78;100648.34;4914310;29;9367;-69
2022/04/05 08:47:49;;;;;;;;;2.00;2.00;;;;;16.32;61.00;100645.78;4915149;29;9360;-71
2022/04/05 08:50:18;;;;;;;;;0.00;0.00;;;;;16.42;61.21;100650.16;4913563;29;9403;-69
2022/04/05 08:52:45;;;;;;;;;2.00;1.00;;;;;16.34;61.25;100649.31;4913406;29;9350;-69
2022/04/05 08:55:12;;;;;;;;;1.67;1.00;;;;;16.43;60.89;100652.75;4913775;29;9394;-70
2022/04/05 08:57:38;;;;;;;;;2.00;1.00;;;;;16.39;60.78;100647.50;4914400;29;9423;-70
2022/04/05 09:00:06;;;;;;;;;2.33;1.00;;;;;16.43;60.83;100641.34;4912983;29;9361;-69
2022/04/05 09:02:32;;;;;;;;;1.00;1.00;;;;;16.44;60.78;100653.63;4914131;29;8820;-69
2022/04/05 09:04:57;;;;;;;;;2.33;1.00;;;;;16.43;60.82;100655.41;4912978;29;9397;-69
2022/04/05 09:07:31;;;;;;;;;1.33;1.00;;;;;16.38;60.78;100659.81;4913126;29;9584;-69
2022/04/05 09:10:13;;;;;;;;;1.00;0.67;;;;;16.42;60.73;100656.28;4913947;29;9577;-69
2022/04/05 09:12:44;;;;;;;;;1.00;1.00;;;;;16.45;60.72;100655.41;4913879;29;9236;-69
2022/04/05 09:15:21;;;;;;;;;2.00;2.00;;;;;16.45;60.77;100652.75;4912568;29;9182;-69
2022/04/05 09:17:49;;;;;;;;;1.00;1.00;;;;;16.42;60.58;100658.91;4913221;29;9301;-70
2022/04/05 09:20:16;;;;;;;;;1.00;1.00;;;;;16.41;60.45;100658.94;4912406;29;9467;-69
2022/04/05 09:22:42;;;;;;;;;2.00;1.00;;;;;16.43;60.87;100662.41;4913967;29;9332;-70
2022/04/05 09:25:10;;;;;;;;;0.67;0.33;;;;;16.50;60.70;100656.22;4912023;29;9499;-70
2022/04/05 09:27:50;;;;;;;;;1.00;1.00;;;;;16.45;60.77;100671.22;4913095;29;8911;-69
2022/04/05 09:30:22;;;;;;;;;0.67;0.33;;;;;16.46;60.49;100662.41;4913943;29;9300;-69
2022/04/05 09:32:48;;;;;;;;;1.67;0.67;;;;;16.40;60.61;100665.06;4913088;29;9257;-69
2022/04/05 09:35:19;;;;;;;;;1.33;1.00;;;;;16.38;60.75;100672.97;4911987;29;9391;-69
2022/04/05 09:37:44;;;;;;;;;0.00;0.00;;;;;16.48;60.51;100670.31;4913059;29;9330;-70
2022/04/05 09:40:18;;;;;;;;;0.00;0.00;;;;;16.39;60.68;100669.47;4913479;29;9445;-68
2022/04/05 09:43:07;;;;;;;;;2.00;1.33;;;;;16.41;60.91;100673.00;4912236;29;8935;-69
2022/04/05 09:45:58;;;;;;;;;1.33;1.33;;;;;16.42;60.69;100677.34;4912276;29;9280;-69
2022/04/05 09:48:26;;;;;;;;;0.67;0.67;;;;;16.48;60.53;100672.94;4912823;29;10072;-69
2022/04/05 09:50:59;;;;;;;;;1.00;1.00;;;;;16.45;60.81;100673.84;4913074;29;9344;-69
2022/04/05 09:53:38;;;;;;;;;2.00;1.00;;;;;16.45;60.58;100671.22;4912210;29;9324;-70
2022/04/05 09:56:09;;;;;;;;;1.00;1.00;;;;;16.35;60.83;100673.00;4912443;29;9646;-70
2022/04/05 09:58:35;;;;;;;;;1.67;1.67;;;;;16.37;60.80;100660.72;4913631;29;9262;-70
2022/04/05 10:01:07;;;;;;;;;1.00;1.00;;;;;16.31;61.26;100670.38;4913000;29;9462;-70
2022/04/05 10:03:36;;;;;;;;;0.75;0.75;;;;;16.35;60.69;100666.84;4911269;29;9387;-69
2022/04/05 10:06:05;;;;;;;;;1.75;1.75;;;;;16.36;61.16;100665.97;4912649;29;9357;-70
2022/04/05 10:08:32;;;;;;;;;1.33;1.33;;;;;16.32;61.19;100672.13;4913018;29;9517;-69
2022/04/05 10:11:02;;;;;;;;;1.00;1.00;;;;;16.31;60.92;100673.00;4911905;29;9412;-70
2022/04/05 10:13:28;;;;;;;;;1.00;1.00;;;;;16.31;61.23;100670.38;4913714;29;9367;-70
2022/04/05 10:15:54;;;;;;;;;2.00;1.00;;;;;16.32;61.00;100675.66;4912716;29;9299;-70
2022/04/05 10:18:20;;;;;;;;;2.50;1.00;;;;;16.24;61.37;100681.81;4912545;29;9306;-70
2022/04/05 10:20:50;;;;;;;;;2.00;0.00;;;;;16.28;60.99;100673.03;4912770;29;9627;-70
2022/04/05 10:23:22;;;;;;;;;1.00;0.50;;;;;16.22;61.01;100660.78;4915135;29;12402;-70
2022/04/05 10:25:50;;;;;;;;;1.00;1.00;;;;;16.27;61.37;100677.41;4909777;29;10234;-70
2022/04/05 10:28:19;;;;;;;;;1.00;1.00;;;;;16.26;61.16;100678.31;4913690;29;9398;-71
2022/04/05 10:30:51;;;;;;;;;0.67;0.67;;;;;16.24;61.10;100676.56;4906995;29;9380;-70
2022/04/05 10:33:41;;;;;;;;;1.00;1.00;;;;;16.25;60.98;100678.31;4916327;29;9245;-70
2022/04/05 10:36:08;;;;;;;;;1.33;1.00;;;;;16.23;61.41;100680.09;4917135;29;9162;-71
2022/04/05 10:38:34;;;;;;;;;1.00;1.00;;;;;16.24;61.20;100679.19;4921171;29;9245;-70
2022/04/05 10:41:20;;;;;;;;;1.67;1.67;;;;;16.26;61.44;100680.97;4917581;29;9372;-71
2022/04/05 10:44:18;;;;;;;;;1.00;1.00;;;;;16.27;61.11;100679.22;4916188;29;8852;-71
2022/04/05 10:47:01;;;;;;;;;0.00;0.00;;;;;16.26;61.03;100685.34;4915920;29;9173;-70
2022/04/05 10:49:43;;;;;;;;;2.00;1.00;;;;;16.26;61.25;100677.44;4916719;29;9273;-70
2022/04/05 10:52:10;;;;;;;;;1.00;1.00;;;;;16.26;61.32;100675.69;4916179;29;9391;-71
2022/04/05 10:54:44;;;;;;;;;1.00;1.00;;;;;16.26;61.51;100678.31;4915494;29;9381;-70
2022/04/05 10:57:16;;;;;;;;;1.00;1.00;;;;;16.27;61.14;100684.47;4916489;29;9332;-70
2022/04/05 10:59:47;;;;;;;;;2.00;1.00;;;;;16.26;61.24;100674.81;4915605;29;9281;-70
2022/04/05 11:02:35;;;;;;;;;2.67;1.67;;;;;16.26;61.55;100677.44;4916724;29;9357;-70
2022/04/05 11:05:25;;;;;;;;;1.67;0.00;;;;;16.25;61.74;100668.66;4915353;29;9267;-71
2022/04/05 11:07:59;;;;;;;;;2.33;1.00;;;;;16.28;61.62;100680.94;4914859;29;9535;-70
2022/04/05 11:10:44;;;;;;;;;0.67;0.67;;;;;16.27;61.52;100666.88;4916407;29;9252;-70
2022/04/05 11:13:15;;;;;;;;;2.00;2.00;;;;;16.38;61.15;100672.97;4904686;29;9300;-70
2022/04/05 11:15:45;;;;;;;;;0.00;0.00;;;;;16.38;60.96;100666.84;4915677;29;9395;-70
2022/04/05 11:18:18;;;;;;;;;1.00;0.67;;;;;16.36;61.08;100664.22;4916103;29;9343;-70
2022/04/05 11:20:45;;;;;;;;;1.00;1.00;;;;;16.38;61.21;100677.41;4914809;29;9225;-70
2022/04/05 11:23:12;;;;;;;;;0.33;0.33;;;;;16.42;60.84;100673.88;4915874;29;9252;-70
2022/04/05 11:25:37;;;;;;;;;2.00;1.00;;;;;16.46;60.89;100682.63;4915419;29;9039;-70
2022/04/05 11:28:09;;;;;;;;;1.00;1.00;;;;;16.41;61.26;100669.47;4913508;29;9074;-71
2022/04/05 11:30:39;;;;;;;;;1.00;1.00;;;;;16.42;61.03;100679.97;4915832;29;8820;-70
2022/04/05 11:33:30;;;;;;;;;0.67;0.67;;;;;16.47;61.05;100672.06;4915771;29;9299;-70
2022/04/05 11:35:57;;;;;;;;;1.00;1.00;;;;;16.48;61.27;100687.00;4914709;29;9200;-70